Time;durP1;ratioP1;P1;durP2;ratioP2;P2;SDS_P1;SDS_P2;PMS_P1;PMS_P2;Temp;Humidity;BMP_temperature;BMP_pressure;BME280_temperature;BME280_humidity;BME280_pressure;Samples;Min_cycle;Max_cycle;Signal;HPM_P1;HPM_P2
2023/10/27 00:01:06;;;;;;;31.63;20.45;;;9.40;99.90;;;;;;5101917;28;20143;-61
2023/10/27 00:03:32;;;;;;;29.00;20.45;;;9.40;99.90;;;;;;5098335;28;20036;-62
2023/10/27 00:05:58;;;;;;;28.55;20.27;;;9.40;99.90;;;;;;5096538;28;20051;-62
2023/10/27 00:08:23;;;;;;;29.38;21.17;;;9.40;99.90;;;;;;5094233;28;20509;-61
2023/10/27 00:10:49;;;;;;;27.80;20.17;;;9.40;99.90;;;;;;5098440;28;20379;-62
2023/10/27 00:13:15;;;;;;;30.92;21.67;;;9.30;99.90;;;;;;5097380;28;20070;-62
2023/10/27 00:15:40;;;;;;;31.48;21.23;;;9.30;99.90;;;;;;5093364;28;20035;-62
2023/10/27 00:18:06;;;;;;;29.45;20.85;;;9.30;99.90;;;;;;5098197;28;20589;-63
2023/10/27 00:20:32;;;;;;;31.08;19.90;;;9.40;99.90;;;;;;5096068;28;20040;-63
2023/10/27 00:22:57;;;;;;;31.70;21.58;;;9.30;99.90;;;;;;5098874;28;20083;-63
2023/10/27 00:25:24;;;;;;;27.77;19.50;;;9.30;99.90;;;;;;5096648;28;20134;-62
2023/10/27 00:27:50;;;;;;;26.85;19.75;;;9.30;99.90;;;;;;5110174;28;20047;-62
2023/10/27 00:30:16;;;;;;;29.23;19.30;;;9.30;99.90;;;;;;5112292;28;20403;-63
2023/10/27 00:32:42;;;;;;;29.15;19.70;;;9.20;99.90;;;;;;5111220;28;20146;-63
2023/10/27 00:35:09;;;;;;;27.60;19.02;;;9.20;99.90;;;;;;5112447;28;20867;-62
2023/10/27 00:37:35;;;;;;;28.65;19.85;;;9.30;99.90;;;;;;5110521;28;20047;-64
2023/10/27 00:40:02;;;;;;;31.23;19.65;;;9.30;99.90;;;;;;5110742;28;20435;-62
2023/10/27 00:42:27;;;;;;;28.67;19.23;;;9.30;99.90;;;;;;5109071;28;20418;-63
2023/10/27 00:44:53;;;;;;;28.67;18.70;;;9.20;99.90;;;;;;5093433;28;20055;-61
2023/10/27 00:47:19;;;;;;;28.98;19.20;;;9.30;99.90;;;;;;5110511;28;20039;-61
2023/10/27 00:49:45;;;;;;;27.88;18.88;;;9.30;99.90;;;;;;5106949;28;20035;-62
2023/10/27 00:52:14;;;;;;;27.33;18.65;;;9.30;99.90;;;;;;5110804;28;20068;-61
2023/10/27 00:54:41;;;;;;;29.40;19.83;;;9.30;99.90;;;;;;5109545;28;20040;-62
2023/10/27 00:57:07;;;;;;;31.02;18.92;;;9.30;99.90;;;;;;5092907;28;20181;-62
2023/10/27 00:59:34;;;;;;;30.00;19.60;;;9.30;99.90;;;;;;5096049;28;20051;-62
2023/10/27 01:01:59;;;;;;;32.00;20.42;;;9.30;99.90;;;;;;5097554;28;20043;-62
2023/10/27 01:04:32;;;;;;;29.50;19.00;;;9.30;99.90;;;;;;5078831;27;20494;-63
2023/10/27 01:06:58;;;;;;;30.63;19.27;;;9.30;99.90;;;;;;5062093;28;20134;-63
2023/10/27 01:09:23;;;;;;;28.92;18.90;;;9.30;99.90;;;;;;5061228;28;20047;-63
2023/10/27 01:11:49;;;;;;;30.70;19.52;;;9.30;99.90;;;;;;5076624;28;20032;-63
2023/10/27 01:14:16;;;;;;;30.45;19.70;;;9.30;99.90;;;;;;5078541;28;20116;-63
2023/10/27 01:16:42;;;;;;;31.40;19.52;;;9.30;99.90;;;;;;5063882;28;20036;-63
2023/10/27 01:19:08;;;;;;;30.38;19.23;;;9.30;99.90;;;;;;5058831;28;20176;-63
2023/10/27 01:21:33;;;;;;;30.40;19.05;;;9.30;99.90;;;;;;5062550;28;20725;-63
2023/10/27 01:23:59;;;;;;;35.25;20.60;;;9.30;99.90;;;;;;5058466;28;20041;-63
2023/10/27 01:26:24;;;;;;;33.03;19.60;;;9.30;99.90;;;;;;5057421;28;20047;-63
2023/10/27 01:28:51;;;;;;;33.50;20.52;;;9.30;99.90;;;;;;5064711;28;20130;-64
2023/10/27 01:31:17;;;;;;;33.55;21.42;;;9.30;99.90;;;;;;5062165;28;20044;-62
2023/10/27 01:33:43;;;;;;;33.58;19.92;;;9.30;99.90;;;;;;5063455;28;20086;-63
2023/10/27 01:36:09;;;;;;;32.20;20.08;;;9.40;99.90;;;;;;5061681;28;20086;-63
2023/10/27 01:38:34;;;;;;;35.05;21.45;;;9.40;99.90;;;;;;5079294;28;20584;-63
2023/10/27 01:41:00;;;;;;;34.00;20.55;;;9.40;99.90;;;;;;5080406;28;20040;-62
2023/10/27 01:43:26;;;;;;;36.00;20.85;;;9.40;99.90;;;;;;5083149;28;20049;-63
2023/10/27 01:45:51;;;;;;;35.60;20.83;;;9.40;99.90;;;;;;5062970;28;20043;-63
2023/10/27 01:48:17;;;;;;;34.70;21.50;;;9.40;99.90;;;;;;5077852;28;20043;-62
2023/10/27 01:50:43;;;;;;;36.45;21.80;;;9.40;99.90;;;;;;5061463;28;20043;-63
2023/10/27 01:53:08;;;;;;;33.88;21.27;;;9.40;99.90;;;;;;5060368;28;20048;-62
2023/10/27 01:55:34;;;;;;;35.40;20.95;;;9.40;99.90;;;;;;5080411;28;21226;-62
2023/10/27 01:58:00;;;;;;;34.17;20.88;;;9.40;99.90;;;;;;5074401;28;20040;-63
2023/10/27 02:00:25;;;;;;;33.55;21.10;;;9.40;99.90;;;;;;5061340;28;20037;-63
2023/10/27 02:02:51;;;;;;;34.78;20.98;;;9.50;99.90;;;;;;5080819;28;20086;-63
2023/10/27 02:05:16;;;;;;;35.03;20.73;;;9.40;99.90;;;;;;5078013;28;20091;-63
2023/10/27 02:07:42;;;;;;;33.15;20.67;;;9.50;99.90;;;;;;5060195;28;20102;-63
2023/10/27 02:10:08;;;;;;;30.10;19.63;;;9.50;99.90;;;;;;5057877;28;20028;-61
2023/10/27 02:12:33;;;;;;;27.85;18.73;;;9.50;99.90;;;;;;5061976;28;20040;-62
2023/10/27 02:14:59;;;;;;;29.42;18.83;;;9.50;99.90;;;;;;5053084;28;20055;-62
2023/10/27 02:17:27;;;;;;;32.00;20.33;;;9.50;99.90;;;;;;5046386;28;20033;-63
2023/10/27 02:19:54;;;;;;;28.92;18.98;;;9.50;99.90;;;;;;5060322;28;20048;-63
2023/10/27 02:22:20;;;;;;;29.92;18.80;;;9.50;99.90;;;;;;5049687;28;20036;-61
2023/10/27 02:24:45;;;;;;;30.08;18.92;;;9.50;99.90;;;;;;5063287;28;20040;-62
2023/10/27 02:27:11;;;;;;;30.80;19.02;;;9.50;99.90;;;;;;5071424;28;20044;-62
2023/10/27 02:29:37;;;;;;;27.52;18.13;;;9.50;99.90;;;;;;5072877;28;20383;-62
2023/10/27 02:32:03;;;;;;;24.17;17.00;;;9.50;99.90;;;;;;5037655;28;20045;-62
2023/10/27 02:34:29;;;;;;;26.55;17.80;;;9.50;99.90;;;;;;5054683;28;20052;-62
2023/10/27 02:36:54;;;;;;;27.45;18.08;;;9.50;99.90;;;;;;5072725;28;20399;-62
2023/10/27 02:39:20;;;;;;;27.48;17.15;;;9.40;99.90;;;;;;5072350;28;20037;-62
2023/10/27 02:41:46;;;;;;;23.98;16.95;;;9.50;99.90;;;;;;5072630;28;20028;-61
2023/10/27 02:44:12;;;;;;;26.10;16.27;;;9.40;99.90;;;;;;5072411;28;20102;-62
2023/10/27 02:46:38;;;;;;;25.95;17.05;;;9.50;99.90;;;;;;5054259;28;20032;-61
2023/10/27 02:49:04;;;;;;;24.38;16.05;;;9.50;99.90;;;;;;5052818;28;20056;-61
2023/10/27 02:51:30;;;;;;;24.73;16.15;;;9.50;99.90;;;;;;5072241;28;20106;-61
2023/10/27 02:53:57;;;;;;;25.80;17.30;;;9.40;99.90;;;;;;5072225;28;20036;-61
2023/10/27 02:56:23;;;;;;;25.10;17.05;;;9.50;99.90;;;;;;5064825;28;20048;-62
2023/10/27 02:58:49;;;;;;;26.23;16.95;;;9.50;99.90;;;;;;5029308;28;20037;-62
2023/10/27 03:01:15;;;;;;;25.13;16.35;;;9.40;99.90;;;;;;5047503;28;20106;-62
2023/10/27 03:03:44;;;;;;;24.33;16.73;;;9.50;99.90;;;;;;5078955;28;20044;-62
2023/10/27 03:06:10;;;;;;;28.55;17.52;;;9.40;99.90;;;;;;5052405;28;20037;-62
2023/10/27 03:08:38;;;;;;;24.63;17.10;;;9.40;99.90;;;;;;5052475;28;20072;-62
2023/10/27 03:11:03;;;;;;;26.48;16.13;;;9.40;99.90;;;;;;5036150;28;20037;-62
2023/10/27 03:13:31;;;;;;;23.80;16.30;;;9.40;99.90;;;;;;5070640;28;20039;-62
2023/10/27 03:16:00;;;;;;;26.60;17.13;;;9.40;99.90;;;;;;5071409;28;20052;-63
2023/10/27 03:18:27;;;;;;;24.45;16.15;;;9.50;99.90;;;;;;5052637;28;20094;-63
2023/10/27 03:20:56;;;;;;;24.67;17.25;;;9.40;99.90;;;;;;5053322;28;20068;-63
2023/10/27 03:23:23;;;;;;;27.45;16.58;;;9.40;99.90;;;;;;5052840;28;20442;-63
2023/10/27 03:25:49;;;;;;;25.30;17.08;;;9.40;99.90;;;;;;5051958;28;20029;-62
2023/10/27 03:28:15;;;;;;;26.50;18.20;;;9.40;99.90;;;;;;5060824;28;20039;-63
2023/10/27 03:30:42;;;;;;;25.73;16.50;;;9.40;99.90;;;;;;5054932;28;20044;-63
2023/10/27 03:33:08;;;;;;;27.63;17.05;;;9.40;99.90;;;;;;5052854;28;20068;-63
2023/10/27 03:35:34;;;;;;;27.33;16.85;;;9.40;99.90;;;;;;5069605;28;20045;-63
2023/10/27 03:38:00;;;;;;;24.58;16.70;;;9.50;99.90;;;;;;5058553;28;20040;-63
2023/10/27 03:40:26;;;;;;;27.27;18.13;;;9.40;99.90;;;;;;5042943;28;20083;-63
2023/10/27 03:42:51;;;;;;;25.48;16.80;;;9.50;99.90;;;;;;5052498;28;20123;-63
2023/10/27 03:45:17;;;;;;;31.02;18.33;;;9.40;99.90;;;;;;5071379;28;20116;-64
2023/10/27 03:47:43;;;;;;;29.95;18.52;;;9.50;99.90;;;;;;5052911;28;20039;-63
2023/10/27 03:50:09;;;;;;;26.50;17.40;;;9.40;99.90;;;;;;5052765;28;20067;-63
2023/10/27 03:52:34;;;;;;;27.63;18.15;;;9.50;99.90;;;;;;5053323;28;20080;-63
2023/10/27 03:55:00;;;;;;;28.23;18.35;;;9.40;99.90;;;;;;5070825;28;20545;-63
2023/10/27 03:57:26;;;;;;;29.63;17.92;;;9.40;99.90;;;;;;5071015;28;20431;-63
2023/10/27 03:59:51;;;;;;;25.88;17.10;;;9.40;99.90;;;;;;5052985;28;20029;-62
2023/10/27 04:02:17;;;;;;;27.95;17.38;;;9.40;99.90;;;;;;5052326;28;20111;-62
2023/10/27 04:04:42;;;;;;;27.95;17.88;;;9.40;99.90;;;;;;5052351;28;20052;-62
2023/10/27 04:07:08;;;;;;;27.65;17.73;;;9.40;99.90;;;;;;5052214;28;20036;-62
2023/10/27 04:09:34;;;;;;;30.85;17.95;;;9.40;99.90;;;;;;5052582;28;20049;-62
2023/10/27 04:11:59;;;;;;;25.45;16.55;;;9.40;99.90;;;;;;5069861;28;20502;-62
2023/10/27 04:14:25;;;;;;;25.25;17.40;;;9.40;99.90;;;;;;5052274;28;20055;-62
2023/10/27 04:16:51;;;;;;;25.25;16.63;;;9.40;99.90;;;;;;5051696;28;20063;-62
2023/10/27 04:19:17;;;;;;;25.52;17.17;;;9.40;99.90;;;;;;5051708;28;20482;-62
2023/10/27 04:21:42;;;;;;;31.10;17.55;;;9.40;99.90;;;;;;5070650;28;20090;-61
2023/10/27 04:24:08;;;;;;;24.90;16.77;;;9.40;99.90;;;;;;5052892;28;20037;-62
2023/10/27 04:26:36;;;;;;;25.02;16.85;;;9.40;99.90;;;;;;5051489;28;20040;-62
2023/10/27 04:29:01;;;;;;;26.38;17.05;;;9.40;99.90;;;;;;5052256;28;20094;-61
2023/10/27 04:31:27;;;;;;;24.55;15.55;;;9.40;99.90;;;;;;5057221;28;20048;-62
2023/10/27 04:33:56;;;;;;;24.95;16.02;;;9.40;99.90;;;;;;5052560;28;20134;-62
2023/10/27 04:36:21;;;;;;;22.42;15.30;;;9.40;99.90;;;;;;5052706;28;20119;-62
2023/10/27 04:38:47;;;;;;;23.50;16.10;;;9.50;99.90;;;;;;5068129;28;20119;-62
2023/10/27 04:41:13;;;;;;;26.65;16.92;;;9.40;99.90;;;;;;5051922;28;20052;-62
2023/10/27 04:43:38;;;;;;;27.75;16.73;;;9.50;99.90;;;;;;5052339;28;20083;-62
2023/10/27 04:46:04;;;;;;;23.88;15.25;;;9.40;99.90;;;;;;5035328;28;20044;-62
2023/10/27 04:48:30;;;;;;;24.25;16.70;;;9.40;99.90;;;;;;5052282;28;20043;-61
2023/10/27 04:50:59;;;;;;;24.48;15.65;;;9.40;99.90;;;;;;5052167;28;20040;-62
2023/10/27 04:53:25;;;;;;;24.77;16.88;;;9.50;99.90;;;;;;5052370;28;20045;-63
2023/10/27 04:55:50;;;;;;;24.52;15.85;;;9.40;99.90;;;;;;5051297;28;20032;-62
2023/10/27 04:58:17;;;;;;;24.48;17.00;;;9.40;99.90;;;;;;5051154;28;20434;-62
2023/10/27 05:00:43;;;;;;;24.15;15.70;;;9.40;99.90;;;;;;5051425;28;20056;-62
2023/10/27 05:03:09;;;;;;;23.08;15.68;;;9.40;99.90;;;;;;5070879;28;20059;-61
2023/10/27 05:05:34;;;;;;;23.77;15.48;;;9.40;99.90;;;;;;5052039;28;20096;-63
2023/10/27 05:08:00;;;;;;;22.60;15.82;;;9.40;99.90;;;;;;5074501;28;20037;-62
2023/10/27 05:10:26;;;;;;;21.15;14.85;;;9.40;99.90;;;;;;5069286;28;20394;-63
2023/10/27 05:12:51;;;;;;;23.45;15.82;;;9.40;99.90;;;;;;5051626;28;20111;-63
2023/10/27 05:15:17;;;;;;;23.77;15.60;;;9.40;99.90;;;;;;5069329;28;20070;-63
2023/10/27 05:17:43;;;;;;;23.35;15.13;;;9.40;99.90;;;;;;5070187;28;20475;-63
2023/10/27 05:20:10;;;;;;;22.13;15.52;;;9.40;99.90;;;;;;5051171;28;20056;-63
2023/10/27 05:22:36;;;;;;;23.13;15.35;;;9.40;99.90;;;;;;5069092;28;20395;-63
2023/10/27 05:25:03;;;;;;;23.30;15.63;;;9.40;99.90;;;;;;5070008;28;20041;-63
2023/10/27 05:27:29;;;;;;;23.98;16.05;;;9.30;99.90;;;;;;5051237;28;20052;-63
2023/10/27 05:29:55;;;;;;;22.88;15.63;;;9.30;99.90;;;;;;5069993;28;20032;-63
2023/10/27 05:32:20;;;;;;;23.17;16.27;;;9.30;99.90;;;;;;5049715;28;21983;-63
2023/10/27 05:34:47;;;;;;;21.63;15.52;;;9.30;99.90;;;;;;5051971;28;20043;-63
2023/10/27 05:37:13;;;;;;;23.52;15.52;;;9.30;99.90;;;;;;5069050;28;20040;-63
2023/10/27 05:39:39;;;;;;;23.52;15.57;;;9.20;99.90;;;;;;5069431;28;20039;-63
2023/10/27 05:42:05;;;;;;;22.95;16.38;;;9.20;99.90;;;;;;5051125;28;20083;-64
2023/10/27 05:44:30;;;;;;;21.58;15.80;;;9.20;99.90;;;;;;5051486;28;20044;-63
2023/10/27 05:46:58;;;;;;;23.30;16.30;;;9.20;99.90;;;;;;5068521;28;20086;-63
2023/10/27 05:49:24;;;;;;;23.92;16.05;;;9.20;99.90;;;;;;5069625;28;20125;-63
2023/10/27 05:51:51;;;;;;;22.98;15.88;;;9.20;99.90;;;;;;5054325;28;20060;-63
2023/10/27 05:54:17;;;;;;;23.08;15.90;;;9.20;99.90;;;;;;5072194;28;20063;-63
2023/10/27 05:56:43;;;;;;;22.15;15.63;;;9.20;99.90;;;;;;5055607;28;20135;-63
2023/10/27 05:59:08;;;;;;;23.40;16.17;;;9.20;99.90;;;;;;5073840;28;20475;-64
2023/10/27 06:01:34;;;;;;;24.38;16.33;;;9.20;99.90;;;;;;5071595;28;20119;-63
2023/10/27 06:04:00;;;;;;;24.75;16.02;;;9.20;99.90;;;;;;5072614;28;20131;-63
2023/10/27 06:06:27;;;;;;;23.30;16.85;;;9.20;99.90;;;;;;5072134;28;20044;-63
2023/10/27 06:08:53;;;;;;;25.05;17.20;;;9.20;99.90;;;;;;5073348;28;20037;-63
2023/10/27 06:11:19;;;;;;;24.60;16.27;;;9.20;99.90;;;;;;5071708;28;20139;-63
2023/10/27 06:13:44;;;;;;;23.65;16.25;;;9.20;99.90;;;;;;5052857;28;20151;-63
2023/10/27 06:16:10;;;;;;;22.20;15.90;;;9.20;99.90;;;;;;5054038;28;20040;-63
2023/10/27 06:18:36;;;;;;;20.83;15.35;;;9.20;99.90;;;;;;5053887;28;20053;-62
2023/10/27 06:21:01;;;;;;;25.77;15.63;;;9.20;99.90;;;;;;5054313;28;20407;-63
2023/10/27 06:23:27;;;;;;;26.45;17.00;;;9.20;99.90;;;;;;5071379;28;20032;-62
2023/10/27 06:25:53;;;;;;;22.17;15.80;;;9.20;99.90;;;;;;5071593;28;20036;-63
2023/10/27 06:28:19;;;;;;;25.65;16.75;;;9.20;99.90;;;;;;5071827;28;20039;-62
2023/10/27 06:30:44;;;;;;;25.00;16.25;;;9.20;99.90;;;;;;5050151;28;20530;-62
2023/10/27 06:33:10;;;;;;;24.67;16.30;;;9.30;99.90;;;;;;5039013;28;20499;-63
2023/10/27 06:35:35;;;;;;;24.80;16.67;;;9.30;99.90;;;;;;5067980;28;20040;-63
2023/10/27 06:38:01;;;;;;;21.90;14.70;;;9.30;99.90;;;;;;5053468;28;20049;-62
2023/10/27 06:40:27;;;;;;;24.77;16.27;;;9.30;99.90;;;;;;5053973;28;20052;-63
2023/10/27 06:42:52;;;;;;;23.40;16.00;;;9.30;99.90;;;;;;5057026;28;20373;-62
2023/10/27 06:45:18;;;;;;;23.20;16.15;;;9.30;99.90;;;;;;5071098;28;20028;-62
2023/10/27 06:47:45;;;;;;;23.80;16.58;;;9.30;99.90;;;;;;5050458;28;20051;-62
2023/10/27 06:50:11;;;;;;;22.63;16.15;;;9.40;99.90;;;;;;5066564;28;20044;-62
2023/10/27 06:52:36;;;;;;;23.02;16.25;;;9.40;99.90;;;;;;5053713;28;20048;-62
2023/10/27 06:55:02;;;;;;;23.80;16.10;;;9.40;99.90;;;;;;5051652;28;20055;-62
2023/10/27 06:57:28;;;;;;;26.60;16.25;;;9.40;99.90;;;;;;5052849;28;20119;-63
2023/10/27 06:59:56;;;;;;;27.67;16.60;;;9.40;99.90;;;;;;5071738;28;20127;-63
2023/10/27 07:02:23;;;;;;;25.52;16.75;;;9.40;99.90;;;;;;5071233;28;20036;-63
2023/10/27 07:04:49;;;;;;;27.08;17.02;;;9.40;99.90;;;;;;5053916;28;20095;-63
2023/10/27 07:07:15;;;;;;;26.40;17.67;;;9.40;99.90;;;;;;5034449;28;20044;-63
2023/10/27 07:09:41;;;;;;;27.45;16.17;;;9.40;99.90;;;;;;5051571;28;20364;-63
2023/10/27 07:12:08;;;;;;;26.27;16.85;;;9.40;99.90;;;;;;5046038;28;20087;-63
2023/10/27 07:14:36;;;;;;;26.02;17.83;;;9.40;99.90;;;;;;5038051;28;20049;-63
2023/10/27 07:17:02;;;;;;;22.60;16.45;;;9.40;99.90;;;;;;5053445;28;20098;-63
2023/10/27 07:19:27;;;;;;;25.77;16.52;;;9.50;99.90;;;;;;5036062;28;20415;-62
2023/10/27 07:21:53;;;;;;;24.48;16.75;;;9.50;99.90;;;;;;5049498;28;20040;-63
2023/10/27 07:24:19;;;;;;;24.85;16.73;;;9.40;99.90;;;;;;5049590;28;20069;-63
2023/10/27 07:26:44;;;;;;;24.75;16.02;;;9.40;99.90;;;;;;5053842;28;20037;-63
2023/10/27 07:29:10;;;;;;;26.15;17.10;;;9.40;99.90;;;;;;5070772;28;20036;-63
2023/10/27 07:31:37;;;;;;;27.25;18.13;;;9.40;99.90;;;;;;5052845;28;20028;-63
2023/10/27 07:34:05;;;;;;;29.83;18.30;;;9.40;99.90;;;;;;5068847;28;20083;-63
2023/10/27 07:36:31;;;;;;;27.58;18.17;;;9.40;99.90;;;;;;5071293;28;20048;-62
2023/10/27 07:38:58;;;;;;;26.70;17.85;;;9.40;99.90;;;;;;5049239;28;20032;-63
2023/10/27 07:41:23;;;;;;;25.33;17.05;;;9.40;99.90;;;;;;5066845;28;20032;-63
2023/10/27 07:43:49;;;;;;;29.88;17.55;;;9.50;99.90;;;;;;5052054;28;20047;-62
2023/10/27 07:46:15;;;;;;;28.63;17.67;;;9.50;99.90;;;;;;5071178;28;20071;-63
2023/10/27 07:48:41;;;;;;;27.15;18.05;;;9.50;99.90;;;;;;5047323;28;20064;-62
2023/10/27 07:51:07;;;;;;;27.45;18.70;;;9.50;99.90;;;;;;5051798;28;20565;-62
2023/10/27 07:53:33;;;;;;;28.35;17.63;;;9.50;99.90;;;;;;5050873;28;20063;-62
2023/10/27 07:55:59;;;;;;;30.80;19.90;;;9.50;99.90;;;;;;5069413;28;20032;-62
2023/10/27 07:58:26;;;;;;;28.00;18.42;;;9.50;99.90;;;;;;5052484;28;20048;-62
2023/10/27 08:00:52;;;;;;;29.42;19.27;;;9.60;99.90;;;;;;5069186;28;20036;-63
2023/10/27 08:03:21;;;;;;;28.63;18.23;;;9.50;99.90;;;;;;5052587;28;20072;-62
2023/10/27 08:05:47;;;;;;;29.45;19.08;;;9.60;99.90;;;;;;5052617;28;20044;-62
2023/10/27 08:08:13;;;;;;;27.90;18.23;;;9.60;99.90;;;;;;5077222;28;20036;-63
2023/10/27 08:10:39;;;;;;;27.50;18.27;;;9.60;99.90;;;;;;5067527;28;20124;-62
2023/10/27 08:13:08;;;;;;;32.95;19.48;;;9.60;99.90;;;;;;5067614;28;20041;-62
2023/10/27 08:15:34;;;;;;;32.70;20.02;;;9.60;99.90;;;;;;5052063;28;20067;-62
2023/10/27 08:18:00;;;;;;;32.63;20.15;;;9.60;99.90;;;;;;5052791;28;20426;-62
2023/10/27 08:20:26;;;;;;;32.17;19.83;;;9.60;99.90;;;;;;5068248;28;20086;-62
2023/10/27 08:22:52;;;;;;;36.13;20.92;;;9.60;99.90;;;;;;5052636;28;20045;-63
2023/10/27 08:25:22;;;;;;;35.00;21.02;;;9.60;99.90;;;;;;5049801;28;20426;-63
2023/10/27 08:27:51;;;;;;;33.95;20.35;;;9.60;99.90;;;;;;5039814;28;20048;-62
2023/10/27 08:30:17;;;;;;;35.45;21.40;;;9.60;99.90;;;;;;5026357;28;20119;-63
2023/10/27 08:32:43;;;;;;;31.73;20.75;;;9.60;99.90;;;;;;5057027;28;20036;-62
2023/10/27 08:35:09;;;;;;;33.90;20.23;;;9.60;99.90;;;;;;5044983;28;20053;-63
2023/10/27 08:37:35;;;;;;;31.48;19.75;;;9.60;99.90;;;;;;5065538;28;20047;-62
2023/10/27 08:40:02;;;;;;;30.33;19.40;;;9.60;99.90;;;;;;5032861;28;20028;-62
2023/10/27 08:42:32;;;;;;;31.38;20.25;;;9.60;99.90;;;;;;5047642;28;20063;-63
2023/10/27 08:44:59;;;;;;;29.27;19.35;;;9.60;99.90;;;;;;5048299;28;20214;-63
2023/10/27 08:47:31;;;;;;;30.90;20.23;;;9.60;99.90;;;;;;5068348;28;20503;-63
2023/10/27 08:49:59;;;;;;;27.35;17.65;;;9.60;99.90;;;;;;5069206;28;20040;-63
2023/10/27 08:52:26;;;;;;;29.05;19.15;;;9.60;99.90;;;;;;5051329;28;20449;-63
2023/10/27 08:54:51;;;;;;;27.08;18.05;;;9.70;99.90;;;;;;5069576;28;20037;-63
2023/10/27 08:57:17;;;;;;;28.65;18.80;;;9.70;99.90;;;;;;5070571;28;20032;-62
2023/10/27 08:59:43;;;;;;;29.63;18.27;;;9.70;99.90;;;;;;5069180;28;20032;-63
2023/10/27 09:02:09;;;;;;;28.88;17.80;;;9.70;99.90;;;;;;5049801;28;20063;-63
2023/10/27 09:04:42;;;;;;;28.65;17.58;;;9.70;99.90;;;;;;5069090;28;20057;-63
2023/10/27 09:07:08;;;;;;;26.40;17.33;;;9.70;99.90;;;;;;5070302;28;20037;-63
2023/10/27 09:09:34;;;;;;;30.85;18.48;;;9.70;99.90;;;;;;5049284;28;20055;-63
2023/10/27 09:12:00;;;;;;;30.23;18.33;;;9.70;99.90;;;;;;5069436;28;20040;-63
2023/10/27 09:14:31;;;;;;;27.88;17.80;;;9.70;99.90;;;;;;5051369;28;20077;-63
2023/10/27 09:17:07;;;;;;;26.55;17.92;;;9.80;99.90;;;;;;5069933;28;20047;-63
2023/10/27 09:19:34;;;;;;;27.77;17.23;;;9.80;99.90;;;;;;5065193;28;20044;-62
2023/10/27 09:22:00;;;;;;;26.55;16.85;;;9.80;99.90;;;;;;5049660;28;20200;-64
2023/10/27 09:24:26;;;;;;;24.75;17.15;;;9.80;99.90;;;;;;5049395;28;20093;-62
2023/10/27 09:26:53;;;;;;;24.55;16.05;;;9.80;99.90;;;;;;5054367;28;20456;-63
2023/10/27 09:29:19;;;;;;;23.27;15.95;;;9.80;99.90;;;;;;5070783;28;20033;-63
2023/10/27 09:31:44;;;;;;;23.02;15.80;;;9.80;99.90;;;;;;5054146;28;20051;-63
2023/10/27 09:34:19;;;;;;;25.27;15.90;;;9.80;99.90;;;;;;5053697;28;20052;-63
2023/10/27 09:36:48;;;;;;;24.48;15.75;;;9.80;99.90;;;;;;5053831;28;20415;-63
2023/10/27 09:39:20;;;;;;;25.73;15.77;;;9.80;99.90;;;;;;5072980;28;20072;-63
2023/10/27 09:42:00;;;;;;;22.52;15.57;;;9.80;99.90;;;;;;5071399;28;20098;-63
2023/10/27 09:44:33;;;;;;;24.38;16.08;;;9.80;99.90;;;;;;5053576;28;20079;-63
2023/10/27 09:47:06;;;;;;;23.95;15.77;;;9.80;99.90;;;;;;5054215;28;20123;-64
2023/10/27 09:49:35;;;;;;;23.60;15.90;;;9.80;99.90;;;;;;5054486;28;20136;-63
2023/10/27 09:52:04;;;;;;;22.23;15.38;;;9.80;99.90;;;;;;5068867;28;20484;-63
2023/10/27 09:54:33;;;;;;;23.25;16.00;;;9.90;99.90;;;;;;5073091;28;20028;-63
2023/10/27 09:57:04;;;;;;;24.83;16.88;;;9.90;99.90;;;;;;5053731;28;20040;-63
2023/10/27 09:59:30;;;;;;;25.45;17.17;;;9.90;99.90;;;;;;5054872;28;20043;-63
2023/10/27 10:02:02;;;;;;;23.33;16.02;;;9.90;99.90;;;;;;5053637;28;20051;-63
2023/10/27 10:04:50;;;;;;;21.75;15.82;;;9.90;99.90;;;;;;5072190;28;20048;-63
2023/10/27 10:07:31;;;;;;;23.65;15.93;;;9.90;99.90;;;;;;5037853;28;20128;-63
2023/10/27 10:09:57;;;;;;;24.48;16.45;;;9.90;99.90;;;;;;5051623;28;20106;-63
2023/10/27 10:12:23;;;;;;;24.90;16.02;;;10.00;99.90;;;;;;5050543;28;20071;-63
2023/10/27 10:14:49;;;;;;;22.90;15.98;;;9.90;99.90;;;;;;5053009;28;20040;-63
2023/10/27 10:17:40;;;;;;;23.50;15.90;;;10.00;99.90;;;;;;5050130;28;21189;-63
2023/10/27 10:20:07;;;;;;;23.65;15.45;;;10.00;99.90;;;;;;5069770;28;20113;-63
2023/10/27 10:22:44;;;;;;;23.50;15.50;;;10.00;99.90;;;;;;5070897;28;20086;-63
2023/10/27 10:25:19;;;;;;;24.52;15.73;;;10.00;99.90;;;;;;5053874;28;20036;-62
2023/10/27 10:28:06;;;;;;;24.50;16.23;;;10.00;99.90;;;;;;5071721;28;20440;-62
2023/10/27 10:30:39;;;;;;;23.15;15.27;;;10.00;99.90;;;;;;5054323;28;20499;-63
2023/10/27 10:33:16;;;;;;;21.92;15.27;;;10.00;99.90;;;;;;5053828;28;20097;-62
2023/10/27 10:35:50;;;;;;;20.63;14.75;;;9.90;99.90;;;;;;5049290;28;20048;-62
2023/10/27 10:38:22;;;;;;;22.73;15.18;;;10.00;99.90;;;;;;5049979;28;20073;-63
2023/10/27 10:40:55;;;;;;;21.33;14.57;;;10.00;99.90;;;;;;5051227;28;20041;-62
2023/10/27 10:43:24;;;;;;;22.67;14.95;;;10.00;99.90;;;;;;5070991;28;20059;-63
2023/10/27 10:45:55;;;;;;;20.80;14.20;;;9.90;99.90;;;;;;5051899;28;20048;-63
2023/10/27 10:48:24;;;;;;;20.98;14.77;;;10.00;99.90;;;;;;5069656;28;20043;-63
2023/10/27 10:50:52;;;;;;;19.80;13.32;;;10.00;99.90;;;;;;5052098;28;20047;-62
2023/10/27 10:53:24;;;;;;;19.50;13.38;;;10.00;99.90;;;;;;5042387;28;20047;-63
2023/10/27 10:55:51;;;;;;;19.33;13.32;;;10.00;99.90;;;;;;5047570;28;20522;-63
2023/10/27 10:58:21;;;;;;;20.27;13.52;;;10.00;99.90;;;;;;5049681;28;20063;-63
2023/10/27 11:00:48;;;;;;;20.17;14.40;;;10.00;99.90;;;;;;5055288;28;20052;-63
2023/10/27 11:03:14;;;;;;;18.05;13.60;;;10.00;99.90;;;;;;5091284;28;20083;-63
2023/10/27 11:05:41;;;;;;;17.27;12.25;;;10.00;99.90;;;;;;5051649;28;20125;-63
2023/10/27 11:08:07;;;;;;;17.90;13.20;;;10.00;99.90;;;;;;5051207;28;20044;-62
2023/10/27 11:10:34;;;;;;;17.58;13.38;;;10.00;99.90;;;;;;5049148;28;20063;-62
2023/10/27 11:13:04;;;;;;;19.45;13.68;;;10.10;99.90;;;;;;5070884;28;20040;-62
2023/10/27 11:15:50;;;;;;;18.85;13.32;;;10.10;99.90;;;;;;5057416;28;20480;-63
2023/10/27 11:18:16;;;;;;;18.92;13.40;;;10.20;99.90;;;;;;5057492;28;20037;-63
2023/10/27 11:20:43;;;;;;;16.40;12.60;;;10.10;99.90;;;;;;5039814;28;20126;-62
2023/10/27 11:23:14;;;;;;;15.93;12.30;;;10.20;99.90;;;;;;5041235;28;20094;-63
2023/10/27 11:25:40;;;;;;;17.20;12.75;;;10.20;99.90;;;;;;5045223;28;20044;-62
2023/10/27 11:28:19;;;;;;;18.10;12.65;;;10.20;99.90;;;;;;5056489;28;20036;-62
2023/10/27 11:31:09;;;;;;;19.17;13.25;;;10.20;99.90;;;;;;5036372;28;20047;-62
2023/10/27 11:33:59;;;;;;;18.02;12.85;;;10.20;99.90;;;;;;5058712;28;21435;-63
2023/10/27 11:36:26;;;;;;;15.70;12.05;;;10.30;99.90;;;;;;5042506;28;20048;-63
2023/10/27 11:38:52;;;;;;;16.50;12.48;;;10.30;99.90;;;;;;5033266;28;20143;-63
2023/10/27 11:41:19;;;;;;;17.65;12.93;;;10.30;99.90;;;;;;5046737;28;20131;-63
2023/10/27 11:43:45;;;;;;;20.13;14.70;;;10.30;99.90;;;;;;5070660;28;20048;-63
2023/10/27 11:46:18;;;;;;;21.40;14.23;;;10.30;99.90;;;;;;5051421;28;20442;-64
2023/10/27 11:48:44;;;;;;;17.50;13.20;;;10.30;99.90;;;;;;5051052;28;20529;-65
2023/10/27 11:51:11;;;;;;;20.65;15.38;;;10.30;99.90;;;;;;5047727;28;20128;-62
2023/10/27 11:53:42;;;;;;;17.13;13.38;;;10.30;99.90;;;;;;5052896;28;20484;-63
2023/10/27 11:56:08;;;;;;;18.00;13.10;;;10.30;99.90;;;;;;5068652;28;20040;-63
2023/10/27 11:58:34;;;;;;;16.20;12.20;;;10.30;99.90;;;;;;5052563;28;20057;-63
2023/10/27 12:00:59;;;;;;;17.45;13.02;;;10.30;99.90;;;;;;5047293;28;20040;-63
2023/10/27 12:03:25;;;;;;;22.17;15.85;;;10.30;99.90;;;;;;5069192;28;20496;-64
2023/10/27 12:05:51;;;;;;;23.05;17.67;;;10.30;99.90;;;;;;5035464;28;20430;-63
2023/10/27 12:08:16;;;;;;;18.50;13.75;;;10.30;99.90;;;;;;5050150;28;20078;-63
2023/10/27 12:10:42;;;;;;;17.50;13.07;;;10.30;99.90;;;;;;5050112;28;20033;-62
2023/10/27 12:13:07;;;;;;;18.13;14.77;;;10.30;99.90;;;;;;5065990;28;20057;-62
2023/10/27 12:15:34;;;;;;;18.73;13.80;;;10.30;99.90;;;;;;5046760;28;20434;-63
2023/10/27 12:18:03;;;;;;;17.90;12.77;;;10.30;99.90;;;;;;5070676;28;20094;-62
2023/10/27 12:20:30;;;;;;;16.67;12.32;;;10.30;99.90;;;;;;5069858;28;20040;-62
2023/10/27 12:22:56;;;;;;;24.58;20.70;;;10.30;99.90;;;;;;5051266;28;20044;-63
2023/10/27 12:25:21;;;;;;;17.40;13.68;;;10.30;99.90;;;;;;5050256;28;20535;-63
2023/10/27 12:27:47;;;;;;;18.27;13.27;;;10.40;99.90;;;;;;5070888;28;20051;-63
2023/10/27 12:30:15;;;;;;;18.58;14.70;;;10.40;99.90;;;;;;5060925;28;20047;-63
2023/10/27 12:32:42;;;;;;;18.35;14.73;;;10.40;99.90;;;;;;5070062;28;20364;-62
2023/10/27 12:35:08;;;;;;;16.63;12.52;;;10.40;99.90;;;;;;5051781;28;20033;-63